createdAt,value
2022-10-05T00:00:52.882Z,9.1
2022-10-05T00:01:53.965Z,9.1
2022-10-05T00:02:54.873Z,9
2022-10-05T00:03:55.882Z,9
2022-10-05T00:04:56.916Z,9
2022-10-05T00:05:57.894Z,9.1
2022-10-05T00:06:58.919Z,9
2022-10-05T00:08:00.877Z,8.9
2022-10-05T00:09:01.870Z,8.9
2022-10-05T00:10:02.960Z,8.9
2022-10-05T00:11:04.833Z,8.9
2022-10-05T00:12:05.928Z,9
2022-10-05T00:13:07.873Z,9
2022-10-05T00:14:08.854Z,9.1
2022-10-05T00:15:09.873Z,9.1
2022-10-05T00:16:10.960Z,9.1
2022-10-05T00:17:11.893Z,9.1
2022-10-05T00:18:12.833Z,9.2
2022-10-05T00:19:13.873Z,9.2
2022-10-05T00:20:14.912Z,9.2
2022-10-05T00:21:15.874Z,9.2
2022-10-05T00:22:16.893Z,9.2
2022-10-05T00:23:17.922Z,9.1
2022-10-05T00:24:18.898Z,9.1
2022-10-05T00:25:19.881Z,9
2022-10-05T00:26:20.893Z,9
2022-10-05T00:27:21.921Z,8.9
2022-10-05T00:28:22.936Z,8.9
2022-10-05T00:29:23.920Z,8.9
2022-10-05T00:30:24.833Z,8.8
2022-10-05T00:31:25.927Z,8.9
2022-10-05T00:32:26.852Z,8.8
2022-10-05T00:33:27.903Z,8.8
2022-10-05T00:34:28.894Z,8.8
2022-10-05T00:35:29.873Z,8.8
2022-10-05T00:36:30.933Z,8.7
2022-10-05T00:37:31.873Z,8.7
2022-10-05T00:38:32.893Z,8.7
2022-10-05T00:39:34.056Z,8.7
2022-10-05T00:40:35.892Z,8.7
2022-10-05T00:41:37.954Z,8.8
2022-10-05T00:42:38.856Z,8.8
2022-10-05T00:43:39.834Z,8.8
2022-10-05T00:44:41.888Z,8.9
2022-10-05T00:45:44.013Z,9
2022-10-05T00:46:46.159Z,9
2022-10-05T00:47:46.892Z,9
2022-10-05T00:48:47.852Z,9
2022-10-05T00:49:48.914Z,9
2022-10-05T00:50:49.921Z,9
2022-10-05T00:51:50.872Z,9
2022-10-05T00:52:51.913Z,9
2022-10-05T00:53:52.935Z,9
2022-10-05T00:54:53.917Z,9
2022-10-05T00:55:54.912Z,9
2022-10-05T00:56:55.893Z,8.9
2022-10-05T00:57:56.933Z,8.9
2022-10-05T00:58:57.961Z,8.9
2022-10-05T00:59:58.915Z,8.9
2022-10-05T01:03:56.891Z,8.9
2022-10-05T01:04:58.852Z,9
2022-10-05T01:05:59.872Z,9
2022-10-05T01:07:00.911Z,9
2022-10-05T01:08:01.939Z,9
2022-10-05T01:09:02.892Z,9
2022-10-05T01:10:03.936Z,9
2022-10-05T01:11:04.932Z,8.9
2022-10-05T01:12:05.928Z,8.9
2022-10-05T01:13:06.924Z,8.9
2022-10-05T01:14:07.880Z,8.8
2022-10-05T01:15:08.842Z,8.7
2022-10-05T01:16:10.895Z,8.7
2022-10-05T01:17:12.953Z,8.6
2022-10-05T01:18:13.926Z,8.6
2022-10-05T01:19:14.912Z,8.6
2022-10-05T01:20:15.932Z,8.6
2022-10-05T01:21:16.890Z,8.6
2022-10-05T01:22:18.920Z,8.6
2022-10-05T01:23:23.854Z,8.6
2022-10-05T01:24:24.911Z,8.6
2022-10-05T01:25:25.917Z,8.5
2022-10-05T01:26:26.876Z,8.5
2022-10-05T01:27:27.931Z,8.5
2022-10-05T01:28:28.949Z,8.5
2022-10-05T01:29:29.960Z,8.4
2022-10-05T01:30:30.891Z,8.4
2022-10-05T01:31:31.955Z,8.4
2022-10-05T01:32:33.940Z,8.4
2022-10-05T01:33:35.933Z,8.4
2022-10-05T01:34:36.952Z,8.4
2022-10-05T01:35:37.871Z,8.3
2022-10-05T01:36:38.865Z,8.3
2022-10-05T01:37:40.892Z,8.3
2022-10-05T01:38:42.932Z,8.4
2022-10-05T01:39:43.993Z,8.3
2022-10-05T01:40:45.989Z,8.4
2022-10-05T01:41:46.921Z,8.4
2022-10-05T01:42:47.959Z,8.4
2022-10-05T01:43:48.960Z,8.5
2022-10-05T01:44:49.975Z,8.5
2022-10-05T01:45:50.994Z,8.5
2022-10-05T01:46:51.913Z,8.6
2022-10-05T01:47:52.981Z,8.6
2022-10-05T01:48:53.955Z,8.6
2022-10-05T01:49:54.972Z,8.6
2022-10-05T01:50:55.952Z,8.6
2022-10-05T01:51:56.960Z,8.6
2022-10-05T01:52:57.952Z,8.5
2022-10-05T01:53:58.912Z,8.5
2022-10-05T01:54:59.933Z,8.5
2022-10-05T01:56:01.035Z,8.4
2022-10-05T01:57:01.932Z,8.3
2022-10-05T01:58:02.932Z,8.2
2022-10-05T01:59:03.931Z,8.3
2022-10-05T02:00:04.968Z,8.3
2022-10-05T02:01:06.013Z,8.3
2022-10-05T02:02:06.959Z,8.3
2022-10-05T02:03:07.911Z,8.3
2022-10-05T02:04:08.913Z,8.4
2022-10-05T02:05:09.972Z,8.4
2022-10-05T02:06:11.932Z,8.4
2022-10-05T02:07:12.896Z,8.5
2022-10-05T02:08:13.911Z,8.5
2022-10-05T02:09:14.914Z,8.6
2022-10-05T02:10:15.976Z,8.6
2022-10-05T02:11:16.956Z,8.7
2022-10-05T02:12:17.931Z,8.7
2022-10-05T02:13:18.959Z,8.7
2022-10-05T02:14:19.940Z,8.8
2022-10-05T02:15:21.019Z,8.8
2022-10-05T02:16:23.006Z,8.9
2022-10-05T02:17:23.951Z,8.9
2022-10-05T02:18:24.942Z,8.9
2022-10-05T02:19:25.951Z,8.9
2022-10-05T02:20:26.973Z,8.9
2022-10-05T02:21:27.936Z,8.9
2022-10-05T02:22:28.873Z,8.9
2022-10-05T02:23:29.971Z,8.9
2022-10-05T02:24:30.955Z,8.9
2022-10-05T02:25:31.891Z,8.9
2022-10-05T02:26:32.977Z,8.9
2022-10-05T02:27:33.991Z,8.8
2022-10-05T02:28:34.998Z,8.7
2022-10-05T02:29:35.951Z,8.7
2022-10-05T02:30:37.011Z,8.6
2022-10-05T02:31:38.044Z,8.6
2022-10-05T02:32:38.960Z,8.6
2022-10-05T02:33:41.151Z,8.5
2022-10-05T02:34:42.951Z,8.5
2022-10-05T02:35:43.971Z,8.5
2022-10-05T02:36:45.260Z,8.5
2022-10-05T02:37:45.991Z,8.4
2022-10-05T02:38:46.971Z,8.4
2022-10-05T02:39:47.972Z,8.4
2022-10-05T02:40:48.997Z,8.4
2022-10-05T02:41:50.026Z,8.4
2022-10-05T02:42:50.951Z,8.4
2022-10-05T02:43:51.953Z,8.5
2022-10-05T02:44:52.951Z,8.5
2022-10-05T02:45:54.157Z,8.5
2022-10-05T02:46:57.299Z,8.6
2022-10-05T02:47:57.951Z,8.6
2022-10-05T02:48:58.993Z,8.6
2022-10-05T02:50:00.046Z,8.6
2022-10-05T02:51:01.971Z,8.6
2022-10-05T02:52:02.992Z,8.6
2022-10-05T02:53:03.971Z,8.6
2022-10-05T02:54:04.951Z,8.6
2022-10-05T02:55:05.993Z,8.6
2022-10-05T02:56:06.993Z,8.6
2022-10-05T02:57:08.019Z,8.6
2022-10-05T02:58:09.000Z,8.6
2022-10-05T02:59:09.970Z,8.6
2022-10-05T03:00:10.952Z,8.7
2022-10-05T03:01:12.084Z,8.7
2022-10-05T03:02:12.985Z,8.7
2022-10-05T03:03:14.071Z,8.7
2022-10-05T03:04:15.952Z,8.7
2022-10-05T03:05:16.980Z,8.7
2022-10-05T03:06:17.992Z,8.6
2022-10-05T03:07:18.999Z,8.7
2022-10-05T03:08:21.072Z,8.7
2022-10-05T03:09:22.993Z,8.7
2022-10-05T03:10:23.951Z,8.6
2022-10-05T03:11:24.912Z,8.6
2022-10-05T03:12:26.980Z,8.6
2022-10-05T03:13:27.977Z,8.6
2022-10-05T03:14:28.954Z,8.5
2022-10-05T03:15:29.992Z,8.5
2022-10-05T03:16:31.068Z,8.6
2022-10-05T03:17:32.913Z,8.6
2022-10-05T03:18:33.975Z,8.7
2022-10-05T03:19:35.032Z,8.8
2022-10-05T03:20:36.940Z,8.8
2022-10-05T03:21:37.971Z,8.8
2022-10-05T03:22:38.960Z,8.9
2022-10-05T03:23:39.953Z,8.9
2022-10-05T03:24:41.951Z,8.9
2022-10-05T03:25:42.934Z,8.9
2022-10-05T03:26:44.254Z,8.9
2022-10-05T03:27:44.995Z,9
2022-10-05T03:28:45.973Z,8.9
2022-10-05T03:29:46.972Z,9
2022-10-05T03:30:48.007Z,9
2022-10-05T03:31:48.957Z,9
2022-10-05T03:32:49.963Z,9
2022-10-05T03:33:51.051Z,9
2022-10-05T03:34:51.952Z,9.1
2022-10-05T03:35:52.992Z,9
2022-10-05T03:36:53.991Z,9
2022-10-05T03:37:54.971Z,9
2022-10-05T03:38:57.052Z,8.9
2022-10-05T03:39:58.973Z,8.9
2022-10-05T03:40:59.930Z,8.8
2022-10-05T03:42:00.992Z,8.7
2022-10-05T03:43:01.974Z,8.7
2022-10-05T03:44:03.014Z,8.7
2022-10-05T03:45:03.971Z,8.8
2022-10-05T03:46:05.114Z,8.8
2022-10-05T03:47:06.952Z,8.7
2022-10-05T03:48:08.021Z,8.8
2022-10-05T03:49:08.992Z,8.8
2022-10-05T03:50:10.079Z,8.8
2022-10-05T03:51:11.972Z,8.7
2022-10-05T03:52:13.015Z,8.7
2022-10-05T03:53:13.953Z,8.7
2022-10-05T03:54:14.996Z,8.6
2022-10-05T03:55:15.992Z,8.6
2022-10-05T03:56:17.007Z,8.7
2022-10-05T03:57:17.944Z,8.7
2022-10-05T03:58:20.077Z,8.7
2022-10-05T03:59:21.993Z,8.7
2022-10-05T04:00:22.994Z,8.8
2022-10-05T04:01:24.021Z,8.9
2022-10-05T04:02:25.027Z,8.9
2022-10-05T04:03:27.012Z,9
2022-10-05T04:04:28.991Z,9
2022-10-05T04:05:29.992Z,9.1
2022-10-05T04:06:31.011Z,9.2
2022-10-05T04:07:31.993Z,9.2
2022-10-05T04:08:33.077Z,9.3
2022-10-05T04:09:35.013Z,9.3
2022-10-05T04:10:35.992Z,9.3
2022-10-05T04:11:37.020Z,9.2
2022-10-05T04:12:37.992Z,9.2
2022-10-05T04:13:39.036Z,9.2
2022-10-05T04:14:39.991Z,9.1
2022-10-05T04:15:41.155Z,9.1
2022-10-05T04:16:43.317Z,9.2
2022-10-05T04:17:44.012Z,9.1
2022-10-05T04:18:45.031Z,9.2
2022-10-05T04:19:46.012Z,9.2
2022-10-05T04:20:47.031Z,9.2
2022-10-05T04:21:48.012Z,9.2
2022-10-05T04:22:49.033Z,9.3
2022-10-05T04:23:50.031Z,9.3
2022-10-05T04:24:50.980Z,9.3
2022-10-05T04:25:52.011Z,9.3
2022-10-05T04:26:53.021Z,9.4
2022-10-05T04:27:54.008Z,9.4
2022-10-05T04:28:55.036Z,9.4
2022-10-05T04:29:55.992Z,9.4
2022-10-05T04:30:57.024Z,9.4
2022-10-05T04:31:57.996Z,9.4
2022-10-05T04:32:59.034Z,9.3
2022-10-05T04:34:00.072Z,9.4
2022-10-05T04:35:01.052Z,9.4
2022-10-05T04:36:02.022Z,9.5
2022-10-05T04:37:03.011Z,9.6
2022-10-05T04:38:03.999Z,9.5
2022-10-05T04:39:05.031Z,9.5
2022-10-05T04:40:06.065Z,9.6
2022-10-05T04:41:07.052Z,9.6
2022-10-05T04:42:08.013Z,9.5
2022-10-05T04:43:09.013Z,9.6
2022-10-05T04:44:09.952Z,9.5
2022-10-05T04:45:11.073Z,9.5
2022-10-05T04:46:13.057Z,9.6
2022-10-05T04:47:14.011Z,9.6
2022-10-05T04:48:14.991Z,9.6
2022-10-05T04:49:16.031Z,9.6
2022-10-05T04:50:17.096Z,9.7
2022-10-05T04:51:17.957Z,9.7
2022-10-05T04:52:19.017Z,9.7
2022-10-05T04:53:20.033Z,9.8
2022-10-05T04:54:21.011Z,9.8
2022-10-05T04:55:22.043Z,9.8
2022-10-05T04:56:23.011Z,9.9
2022-10-05T04:57:24.016Z,9.9
2022-10-05T04:58:24.989Z,9.7
2022-10-05T04:59:27.018Z,9.7
2022-10-05T05:00:29.032Z,9.7
2022-10-05T05:01:30.047Z,9.6
2022-10-05T05:02:32.047Z,9.6
2022-10-05T05:03:33.090Z,9.7
2022-10-05T05:04:34.011Z,9.7
2022-10-05T05:05:35.092Z,9.7
2022-10-05T05:06:37.011Z,9.7
2022-10-05T05:07:37.996Z,9.7
2022-10-05T05:08:39.031Z,9.8
2022-10-05T05:09:40.091Z,9.8
2022-10-05T05:10:42.096Z,9.8
2022-10-05T05:11:44.095Z,9.9
2022-10-05T05:12:45.012Z,9.9
2022-10-05T05:13:46.092Z,10
2022-10-05T05:14:47.123Z,10
2022-10-05T05:15:48.135Z,10
2022-10-05T05:16:49.277Z,10.1
2022-10-05T05:17:51.032Z,10.1
2022-10-05T05:18:53.031Z,10.1
2022-10-05T05:19:54.990Z,10.1
2022-10-05T05:20:57.055Z,10.1
2022-10-05T05:21:58.992Z,10.1
2022-10-05T05:23:00.012Z,10.2
2022-10-05T05:24:01.003Z,10.2
2022-10-05T05:25:02.052Z,10.2
2022-10-05T05:26:03.012Z,10.3
2022-10-05T05:27:04.013Z,10.2
2022-10-05T05:28:05.063Z,10.3
2022-10-05T05:29:06.042Z,10.2
2022-10-05T05:30:07.116Z,10.2
2022-10-05T05:31:08.178Z,10.2
2022-10-05T05:32:10.012Z,10.2
2022-10-05T05:33:11.072Z,10.3
2022-10-05T05:34:12.032Z,10.3
2022-10-05T05:35:13.011Z,10.3
2022-10-05T05:36:14.033Z,10.4
2022-10-05T05:37:14.991Z,10.4
2022-10-05T05:38:16.014Z,10.4
2022-10-05T05:39:17.071Z,10.4
2022-10-05T05:40:18.031Z,10.4
2022-10-05T05:41:19.014Z,10.3
2022-10-05T05:42:20.035Z,10.3
2022-10-05T05:43:21.079Z,10.4
2022-10-05T05:44:22.047Z,10.4
2022-10-05T05:45:23.033Z,10.3
2022-10-05T05:46:34.134Z,10.2
2022-10-05T05:47:25.066Z,10.2
2022-10-05T05:48:26.112Z,10.2
2022-10-05T05:49:27.012Z,10.1
2022-10-05T05:50:28.061Z,10.1
2022-10-05T05:51:29.006Z,10.1
2022-10-05T05:52:30.014Z,10.1
2022-10-05T05:53:31.056Z,10.1
2022-10-05T05:54:32.012Z,10.1
2022-10-05T05:55:33.119Z,10.1
2022-10-05T05:56:35.051Z,10.2
2022-10-05T05:57:36.033Z,10.1
2022-10-05T05:58:37.114Z,10.1
2022-10-05T05:59:39.040Z,10.1
2022-10-05T06:00:40.117Z,10.2
2022-10-05T06:01:44.428Z,10.2
2022-10-05T06:02:42.140Z,10.2
2022-10-05T06:03:43.042Z,10.3
2022-10-05T06:04:44.100Z,10.4
2022-10-05T06:05:45.053Z,10.4
2022-10-05T06:06:46.250Z,10.5
2022-10-05T06:07:47.072Z,10.6
2022-10-05T06:08:48.054Z,10.8
2022-10-05T06:09:49.072Z,10.9
2022-10-05T06:10:50.052Z,11.1
2022-10-05T06:11:51.052Z,11.3
2022-10-05T06:12:52.053Z,11.5
2022-10-05T06:13:53.072Z,11.6
2022-10-05T06:14:54.051Z,11.8
2022-10-05T06:15:55.092Z,11.9
2022-10-05T06:16:56.101Z,12.1
2022-10-05T06:17:56.999Z,12.3
2022-10-05T06:18:58.066Z,12.4
2022-10-05T06:20:04.102Z,12.6
2022-10-05T06:21:00.051Z,12.7
2022-10-05T06:22:01.049Z,12.8
2022-10-05T06:23:02.052Z,12.9
2022-10-05T06:24:04.052Z,13.1
2022-10-05T06:25:05.172Z,13.2
2022-10-05T06:26:10.662Z,13.3
2022-10-05T06:27:08.122Z,13.4
2022-10-05T06:28:10.221Z,13.5
2022-10-05T06:29:12.073Z,13.5
2022-10-05T06:30:13.095Z,13.5
2022-10-05T06:31:14.134Z,13.5
2022-10-05T06:32:15.074Z,13.5
2022-10-05T06:33:16.031Z,13.6
2022-10-05T06:34:17.100Z,13.6
2022-10-05T06:35:18.091Z,13.6
2022-10-05T06:36:19.017Z,13.6
2022-10-05T06:37:20.051Z,13.7
2022-10-05T06:38:21.231Z,13.7
2022-10-05T06:39:23.072Z,13.7
2022-10-05T06:40:24.080Z,13.6
2022-10-05T06:41:25.040Z,13.6
2022-10-05T06:42:26.055Z,13.4
2022-10-05T06:43:27.072Z,13.4
2022-10-05T06:44:28.073Z,13.3
2022-10-05T06:45:29.168Z,13.4
2022-10-05T06:46:30.118Z,13.5
2022-10-05T06:47:31.094Z,13.4
2022-10-05T06:48:32.133Z,13.5
2022-10-05T06:49:33.152Z,13.6
2022-10-05T06:50:34.137Z,13.7
2022-10-05T06:51:35.001Z,13.8
2022-10-05T06:52:36.143Z,13.8
2022-10-05T06:53:37.112Z,13.8
2022-10-05T06:54:38.073Z,13.8
2022-10-05T06:55:39.075Z,13.9
2022-10-05T06:56:40.113Z,13.9
2022-10-05T06:57:41.040Z,14
2022-10-05T06:58:42.113Z,14
2022-10-05T06:59:43.072Z,14.2
2022-10-05T07:00:44.120Z,14.3
2022-10-05T07:01:45.505Z,14.4
2022-10-05T07:02:46.051Z,14.5
2022-10-05T07:03:47.052Z,14.6
2022-10-05T07:04:48.092Z,14.7
2022-10-05T07:05:49.097Z,14.8
2022-10-05T07:06:50.110Z,15
2022-10-05T07:07:51.132Z,15
2022-10-05T07:08:52.154Z,14.9
2022-10-05T07:09:54.164Z,14.9
2022-10-05T07:10:56.091Z,14.9
2022-10-05T07:12:00.986Z,14.9
2022-10-05T07:12:58.041Z,14.8
2022-10-05T07:13:59.071Z,14.7
2022-10-05T07:15:00.084Z,14.7
2022-10-05T07:16:01.114Z,14.7
2022-10-05T07:17:02.269Z,14.7
2022-10-05T07:18:03.153Z,14.6
2022-10-05T07:19:04.112Z,14.4
2022-10-05T07:20:05.090Z,14.3
2022-10-05T07:21:06.093Z,14.2
2022-10-05T07:23:08.111Z,14.2
2022-10-05T07:24:09.192Z,14.2
2022-10-05T07:25:11.094Z,14.3
2022-10-05T07:26:12.053Z,14.3
2022-10-05T07:27:13.077Z,14.4
2022-10-05T07:28:14.179Z,14.3
2022-10-05T07:29:15.079Z,14.3
2022-10-05T07:30:16.215Z,14.1
2022-10-05T07:31:18.319Z,14.1
2022-10-05T07:32:20.196Z,14.1
2022-10-05T07:33:22.114Z,14
2022-10-05T07:34:23.133Z,14
2022-10-05T07:35:24.116Z,14
2022-10-05T07:36:25.094Z,13.9
2022-10-05T07:37:26.095Z,13.9
2022-10-05T07:38:27.072Z,13.9
2022-10-05T07:39:36.823Z,13.9
2022-10-05T07:40:29.132Z,14
2022-10-05T07:41:30.105Z,14
2022-10-05T07:42:31.053Z,14.1
2022-10-05T07:43:45.551Z,14.1
2022-10-05T07:44:33.151Z,14.1
2022-10-05T07:45:34.174Z,14.1
2022-10-05T07:46:35.120Z,14.1
2022-10-05T07:47:36.186Z,14
2022-10-05T07:48:38.073Z,14.1
2022-10-05T07:49:39.132Z,14.1
2022-10-05T07:50:40.108Z,14
2022-10-05T07:51:42.079Z,13.9
2022-10-05T07:52:43.111Z,13.8
2022-10-05T07:53:44.112Z,13.8
2022-10-05T07:54:45.075Z,13.7
2022-10-05T07:55:46.114Z,13.8
2022-10-05T07:56:47.373Z,13.8
2022-10-05T07:57:48.139Z,13.9
2022-10-05T07:58:49.097Z,13.8
2022-10-05T07:59:50.118Z,13.8
2022-10-05T08:00:51.173Z,13.8
2022-10-05T08:01:52.170Z,13.8
2022-10-05T08:02:53.277Z,13.8
2022-10-05T08:03:54.161Z,13.9
2022-10-05T08:04:56.133Z,13.9
2022-10-05T08:05:57.166Z,14
2022-10-05T08:06:58.131Z,14
2022-10-05T08:07:59.133Z,14
2022-10-05T08:09:00.098Z,14.1
2022-10-05T08:10:01.113Z,14.2
2022-10-05T08:11:02.131Z,14.4
2022-10-05T08:12:03.130Z,14.6
2022-10-05T08:13:04.132Z,14.6
2022-10-05T08:14:05.192Z,14.6
2022-10-05T08:15:07.219Z,14.6
2022-10-05T08:16:09.152Z,14.6
2022-10-05T08:17:10.352Z,14.7
2022-10-05T08:18:12.121Z,14.7
2022-10-05T08:19:13.192Z,14.7
2022-10-05T08:20:14.123Z,14.6
2022-10-05T08:21:15.168Z,14.7
2022-10-05T08:22:16.113Z,14.7
2022-10-05T08:23:17.132Z,14.7
2022-10-05T08:24:18.134Z,14.7
2022-10-05T08:25:19.162Z,14.8
2022-10-05T08:26:20.151Z,14.9
2022-10-05T08:27:21.231Z,14.9
2022-10-05T08:28:23.268Z,14.8
2022-10-05T08:29:25.131Z,14.8
2022-10-05T08:30:26.152Z,15
2022-10-05T08:31:27.301Z,15.1
2022-10-05T08:32:28.191Z,15.3
2022-10-05T08:33:29.177Z,15.5
2022-10-05T08:34:30.131Z,15.7
2022-10-05T08:35:31.151Z,15.8
2022-10-05T08:36:32.152Z,16
2022-10-05T08:37:33.099Z,16.2
2022-10-05T08:38:34.172Z,16.2
2022-10-05T08:39:35.138Z,16.3
2022-10-05T08:40:36.200Z,16.4
2022-10-05T08:41:38.252Z,16.2
2022-10-05T08:42:40.132Z,16.3
2022-10-05T08:43:41.173Z,16.1
2022-10-05T08:44:42.152Z,16
2022-10-05T08:45:43.221Z,15.9
2022-10-05T08:46:45.199Z,15.8
2022-10-05T08:47:46.148Z,15.8
2022-10-05T08:48:47.196Z,15.8
2022-10-05T08:49:48.111Z,15.7
2022-10-05T08:50:49.141Z,15.5
2022-10-05T08:51:50.262Z,15.2
2022-10-05T08:52:51.172Z,15
2022-10-05T08:53:52.232Z,14.9
2022-10-05T08:54:53.152Z,14.8
2022-10-05T08:55:54.175Z,14.8
2022-10-05T08:56:55.174Z,14.8
2022-10-05T08:57:56.153Z,14.8
2022-10-05T08:58:57.151Z,14.7
2022-10-05T08:59:58.133Z,14.7
2022-10-05T09:00:59.193Z,14.7
2022-10-05T09:02:00.211Z,14.7
2022-10-05T09:03:01.212Z,14.7
2022-10-05T09:04:02.255Z,14.7
2022-10-05T09:05:04.212Z,14.8
2022-10-05T09:06:05.115Z,14.7
2022-10-05T09:07:06.212Z,14.8
2022-10-05T09:08:08.231Z,14.9
2022-10-05T09:09:10.215Z,15.1
2022-10-05T09:10:11.152Z,15.3
2022-10-05T09:11:12.212Z,15.4
2022-10-05T09:12:13.191Z,15.5
2022-10-05T09:13:14.199Z,15.5
2022-10-05T09:14:15.211Z,15.4
2022-10-05T09:15:27.242Z,15.5
2022-10-05T09:16:17.245Z,15.5
2022-10-05T09:17:18.152Z,15.5
2022-10-05T09:18:19.193Z,15.6
2022-10-05T09:19:20.236Z,15.6
2022-10-05T09:20:21.174Z,15.7
2022-10-05T09:21:22.193Z,15.7
2022-10-05T09:22:23.174Z,15.6
2022-10-05T09:23:24.172Z,15.5
2022-10-05T09:24:25.152Z,15.3
2022-10-05T09:25:26.251Z,15.2
2022-10-05T09:26:28.141Z,15.1
2022-10-05T09:27:29.152Z,15.2
2022-10-05T09:28:30.232Z,15.3
2022-10-05T09:29:31.155Z,15.2
2022-10-05T09:30:32.293Z,15.4
2022-10-05T09:31:34.232Z,15.4
2022-10-05T09:32:35.252Z,15.3
2022-10-05T09:33:36.182Z,15.4
2022-10-05T09:34:37.216Z,15.3
2022-10-05T09:35:38.252Z,15.4
2022-10-05T09:36:40.203Z,15.3
2022-10-05T09:37:41.233Z,15.3
2022-10-05T09:38:42.193Z,15.3
2022-10-05T09:39:43.172Z,15.3
2022-10-05T09:40:44.331Z,15.4
2022-10-05T09:41:46.405Z,15.4
2022-10-05T09:42:50.152Z,15.4
2022-10-05T09:43:51.153Z,15.4
2022-10-05T09:44:52.232Z,15.4
2022-10-05T09:45:54.254Z,15.4
2022-10-05T09:46:56.132Z,15.4
2022-10-05T09:47:57.178Z,15.4
2022-10-05T09:48:58.192Z,15.5
2022-10-05T09:49:59.220Z,15.4
2022-10-05T09:51:00.233Z,15.3
2022-10-05T09:52:01.182Z,15.3
2022-10-05T09:53:02.231Z,15.3
2022-10-05T09:54:03.155Z,15.2
2022-10-05T09:55:04.224Z,15.3
2022-10-05T09:56:05.217Z,15.3
2022-10-05T09:57:06.207Z,15.3
2022-10-05T09:58:07.313Z,15.3
2022-10-05T09:59:09.142Z,15.3
2022-10-05T10:00:10.193Z,15.3
2022-10-05T10:01:22.247Z,15.3
2022-10-05T10:02:12.275Z,15.2
2022-10-05T10:03:13.260Z,15.2
2022-10-05T10:04:14.151Z,15.1
2022-10-05T10:05:15.230Z,15.1
2022-10-05T10:06:16.157Z,15.2
2022-10-05T10:07:17.179Z,15.3
2022-10-05T10:08:18.252Z,15.4
2022-10-05T10:09:19.197Z,15.3
2022-10-05T10:10:20.151Z,15.3
2022-10-05T10:11:21.180Z,15.4
2022-10-05T10:12:22.232Z,15.4
2022-10-05T10:13:24.172Z,15.4
2022-10-05T10:14:25.171Z,15.5
2022-10-05T10:15:26.214Z,15.5
2022-10-05T10:16:27.198Z,15.6
2022-10-05T10:17:28.161Z,15.6
2022-10-05T10:18:29.152Z,15.6
2022-10-05T10:19:30.281Z,15.6
2022-10-05T10:20:31.258Z,15.7
2022-10-05T10:21:33.159Z,15.7
2022-10-05T10:22:34.272Z,15.8
2022-10-05T10:23:35.273Z,15.8
2022-10-05T10:24:37.332Z,15.8
2022-10-05T10:25:39.192Z,16
2022-10-05T10:26:40.232Z,16.1
2022-10-05T10:27:41.213Z,16.2
2022-10-05T10:28:42.181Z,16.2
2022-10-05T10:29:43.256Z,16.2
2022-10-05T10:30:44.815Z,16.3
2022-10-05T10:31:46.446Z,16.3
2022-10-05T10:32:48.309Z,16.4
2022-10-05T10:33:50.232Z,16.3
2022-10-05T10:34:52.272Z,16.3
2022-10-05T10:35:54.276Z,16.3
2022-10-05T10:36:55.192Z,16.2
2022-10-05T10:37:56.192Z,16.1
2022-10-05T10:38:57.177Z,16
2022-10-05T10:39:58.321Z,16.1
2022-10-05T10:40:59.212Z,16.1
2022-10-05T10:42:00.193Z,16.2
2022-10-05T10:43:01.233Z,16.3
2022-10-05T10:44:02.212Z,16.3
2022-10-05T10:45:03.293Z,16.3
2022-10-05T10:46:05.257Z,16.5
2022-10-05T10:47:06.214Z,16.6
2022-10-05T10:48:07.334Z,16.8
2022-10-05T10:49:09.272Z,16.9
2022-10-05T10:50:11.231Z,16.9
2022-10-05T10:51:12.322Z,17
2022-10-05T10:52:13.176Z,17
2022-10-05T10:53:14.233Z,17
2022-10-05T10:54:15.232Z,17
2022-10-05T10:55:16.228Z,17.1
2022-10-05T10:56:17.264Z,17
2022-10-05T10:57:18.234Z,17.1
2022-10-05T10:58:19.239Z,17.1
2022-10-05T10:59:20.274Z,17.3
2022-10-05T11:00:21.214Z,17.4
2022-10-05T11:01:22.285Z,17.5
2022-10-05T11:02:24.292Z,17.6
2022-10-05T11:03:25.292Z,17.7
2022-10-05T11:04:27.211Z,17.8
2022-10-05T11:05:28.153Z,17.8
2022-10-05T11:06:29.236Z,17.8
2022-10-05T11:07:30.238Z,17.9
2022-10-05T11:08:31.232Z,18
2022-10-05T11:09:32.233Z,17.8
2022-10-05T11:10:33.172Z,17.8
2022-10-05T11:11:34.272Z,17.7
2022-10-05T11:12:35.196Z,17.6
2022-10-05T11:13:36.230Z,17.5
2022-10-05T11:14:37.296Z,17.6
2022-10-05T11:15:39.294Z,17.6
2022-10-05T11:16:40.244Z,17.7
2022-10-05T11:17:41.192Z,17.7
2022-10-05T11:18:42.193Z,17.7
2022-10-05T11:19:59.497Z,17.6
2022-10-05T11:20:45.381Z,17.7
2022-10-05T11:21:47.321Z,17.8
2022-10-05T11:22:49.488Z,17.9
2022-10-05T11:23:51.232Z,17.9
2022-10-05T11:24:52.151Z,18
2022-10-05T11:25:54.332Z,18
2022-10-05T11:26:56.313Z,18
2022-10-05T11:27:57.265Z,18.1
2022-10-05T11:28:59.280Z,18.2
2022-10-05T11:30:00.235Z,18.3
2022-10-05T11:31:01.245Z,18.5
2022-10-05T11:32:02.253Z,18.7
2022-10-05T11:33:03.254Z,18.8
2022-10-05T11:34:05.213Z,19
2022-10-05T11:35:06.698Z,18.9
2022-10-05T11:36:08.274Z,18.9
2022-10-05T11:37:09.624Z,18.6
2022-10-05T11:38:11.263Z,18.6
2022-10-05T11:39:12.235Z,18.7
2022-10-05T11:40:13.476Z,18.7
2022-10-05T11:41:15.234Z,18.9
2022-10-05T11:42:16.423Z,19.1
2022-10-05T11:43:18.235Z,19
2022-10-05T11:44:20.273Z,19.1
2022-10-05T11:45:21.254Z,19.1
2022-10-05T11:46:22.361Z,19.1
2022-10-05T11:47:24.272Z,19.3
2022-10-05T11:48:25.191Z,19.4
2022-10-05T11:49:26.204Z,19.5
2022-10-05T11:50:27.272Z,19.6
2022-10-05T11:51:28.960Z,19.5
2022-10-05T11:52:29.258Z,19.5
2022-10-05T11:53:30.295Z,19.4
2022-10-05T11:54:35.123Z,19.5
2022-10-05T11:55:34.462Z,19.7
2022-10-05T11:56:36.259Z,19.8
2022-10-05T11:57:37.169Z,19.7
2022-10-05T11:58:38.251Z,19.8
2022-10-05T11:59:39.232Z,19.8
2022-10-05T12:00:40.299Z,19.8
2022-10-05T12:01:42.327Z,19.8
2022-10-05T12:02:44.866Z,19.9
2022-10-05T12:03:46.321Z,19.9
2022-10-05T12:04:47.363Z,19.8
2022-10-05T12:05:49.251Z,19.7
2022-10-05T12:06:50.700Z,19.7
2022-10-05T12:07:52.417Z,19.7
2022-10-05T12:08:53.288Z,19.7
2022-10-05T12:09:55.294Z,19.6
2022-10-05T12:10:56.239Z,19.4
2022-10-05T12:11:58.112Z,19.2
2022-10-05T12:12:58.452Z,19.1
2022-10-05T12:14:00.271Z,19.1
2022-10-05T12:15:01.291Z,19.2
2022-10-05T12:16:02.365Z,19.2
2022-10-05T12:17:04.273Z,19.2
2022-10-05T12:18:05.380Z,19.2
2022-10-05T12:19:07.217Z,19.3
2022-10-05T12:20:08.352Z,19.3
2022-10-05T12:21:10.252Z,19.2
2022-10-05T12:22:11.291Z,19.3
2022-10-05T12:23:12.280Z,19.4
2022-10-05T12:24:13.331Z,19.6
2022-10-05T12:25:14.274Z,19.5
2022-10-05T12:26:15.252Z,19.3
2022-10-05T12:27:16.312Z,19.3
2022-10-05T12:28:18.398Z,19.4
2022-10-05T12:29:20.247Z,19.5
2022-10-05T12:30:21.333Z,19.6
2022-10-05T12:31:22.399Z,19.6
2022-10-05T12:32:23.332Z,19.8
2022-10-05T12:33:24.251Z,19.9
2022-10-05T12:34:25.253Z,20
2022-10-05T12:35:43.739Z,20.2
2022-10-05T12:36:31.969Z,20.2
2022-10-05T12:37:28.292Z,20.2
2022-10-05T12:38:29.280Z,20.2
2022-10-05T12:39:30.295Z,20.1
2022-10-05T12:40:31.236Z,20.1
2022-10-05T12:41:32.606Z,20.3
2022-10-05T12:42:35.164Z,20.4
2022-10-05T12:43:34.286Z,20.6
2022-10-05T12:44:35.292Z,20.7
2022-10-05T12:45:36.311Z,20.9
2022-10-05T12:46:37.313Z,20.8
2022-10-05T12:47:38.254Z,20.7
2022-10-05T12:48:39.332Z,20.7
2022-10-05T12:49:41.332Z,20.8
2022-10-05T12:50:42.238Z,20.9
2022-10-05T12:51:43.232Z,20.9
2022-10-05T12:52:44.231Z,20.8
2022-10-05T12:53:45.317Z,21
2022-10-05T12:54:46.252Z,21
2022-10-05T12:55:47.252Z,21.1
2022-10-05T12:56:48.292Z,21.1
2022-10-05T12:57:49.305Z,21
2022-10-05T12:58:50.372Z,21
2022-10-05T12:59:52.339Z,20.9
2022-10-05T13:00:53.401Z,20.9
2022-10-05T13:01:55.308Z,20.8
2022-10-05T13:02:56.334Z,20.5
2022-10-05T13:03:57.293Z,20.3
2022-10-05T13:04:58.332Z,20.4
2022-10-05T13:06:02.578Z,20.4
2022-10-05T13:07:00.292Z,20.4
2022-10-05T13:08:01.391Z,20.4
2022-10-05T13:09:03.336Z,20.3
2022-10-05T13:10:04.271Z,20.2
2022-10-05T13:11:05.276Z,20.3
2022-10-05T13:12:06.294Z,20.3
2022-10-05T13:13:07.379Z,20.4
2022-10-05T13:14:08.237Z,20.4
2022-10-05T13:15:09.413Z,20.5
2022-10-05T13:16:11.614Z,20.7
2022-10-05T13:17:12.296Z,20.8
2022-10-05T13:18:13.330Z,20.7
2022-10-05T13:19:15.325Z,20.6
2022-10-05T13:20:17.312Z,20.6
2022-10-05T13:21:18.333Z,20.6
2022-10-05T13:22:19.734Z,20.6
2022-10-05T13:23:20.352Z,20.3
2022-10-05T13:24:21.356Z,20.2
2022-10-05T13:25:22.349Z,20.1
2022-10-05T13:26:24.303Z,20.2
2022-10-05T13:27:25.332Z,20.2
2022-10-05T13:28:27.293Z,20.4
2022-10-05T13:29:28.310Z,20.5
2022-10-05T13:30:30.313Z,20.6
2022-10-05T13:31:32.396Z,20.7
2022-10-05T13:32:33.313Z,20.8
2022-10-05T13:33:34.292Z,20.8
2022-10-05T13:34:35.529Z,20.8
2022-10-05T13:35:37.368Z,20.9
2022-10-05T13:36:39.377Z,20.9
2022-10-05T13:37:40.278Z,20.9
2022-10-05T13:38:41.276Z,20.9
2022-10-05T13:39:42.379Z,20.9
2022-10-05T13:40:43.299Z,21
2022-10-05T13:41:44.439Z,21.1
2022-10-05T13:42:46.278Z,21.3
2022-10-05T13:43:47.290Z,21.2
2022-10-05T13:44:48.297Z,21
2022-10-05T13:45:51.220Z,20.7
2022-10-05T13:46:50.404Z,20.4
2022-10-05T13:47:52.338Z,20.3
2022-10-05T13:48:53.300Z,20.2
2022-10-05T13:49:54.319Z,20.1
2022-10-05T13:50:55.312Z,20.2
2022-10-05T13:51:56.357Z,20.2
2022-10-05T13:52:57.358Z,20.1
2022-10-05T13:53:59.324Z,20